Time;durP1;ratioP1;P1;durP2;ratioP2;P2;SDS_P1;SDS_P2;PMS_P1;PMS_P2;Temp;Humidity;BMP_temperature;BMP_pressure;BME280_temperature;BME280_humidity;BME280_pressure;Samples;Min_cycle;Max_cycle;Signal;HPM_P1;HPM_P2
2021/01/24 00:00:10;;;;;;;44.42;21.95;;;1.00;99.90;;;;;;5109716;28;20055;-66
2021/01/24 00:02:36;;;;;;;43.88;24.25;;;1.00;99.90;;;;;;5109567;28;20100;-67
2021/01/24 00:05:03;;;;;;;48.83;26.05;;;0.90;99.90;;;;;;5109539;28;20040;-67
2021/01/24 00:07:29;;;;;;;50.03;25.63;;;0.90;99.90;;;;;;5109575;28;20050;-66
2021/01/24 00:09:55;;;;;;;41.33;23.88;;;0.90;99.90;;;;;;5109653;28;20729;-66
2021/01/24 00:12:20;;;;;;;56.42;27.67;;;0.90;99.90;;;;;;5109639;28;20063;-66
2021/01/24 00:14:47;;;;;;;64.90;27.98;;;0.90;99.90;;;;;;5109318;28;20040;-66
2021/01/24 00:17:12;;;;;;;50.50;26.63;;;1.00;99.90;;;;;;5109356;28;20130;-67
2021/01/24 00:19:38;;;;;;;49.10;25.83;;;1.00;99.90;;;;;;5109228;28;20055;-67
2021/01/24 00:22:04;;;;;;;57.30;26.33;;;1.00;99.90;;;;;;5109365;28;20040;-66
2021/01/24 00:24:30;;;;;;;53.75;25.77;;;1.00;99.90;;;;;;5109476;28;20048;-67
2021/01/24 00:26:55;;;;;;;45.83;24.48;;;0.90;99.90;;;;;;5109329;28;20048;-66
2021/01/24 00:29:21;;;;;;;58.05;27.52;;;0.90;99.90;;;;;;5109073;28;20040;-66
2021/01/24 00:31:47;;;;;;;53.25;28.42;;;1.00;99.90;;;;;;5109031;28;20040;-66
2021/01/24 00:34:13;;;;;;;47.20;25.27;;;1.00;99.90;;;;;;5108949;28;20115;-66
2021/01/24 00:36:38;;;;;;;52.28;23.63;;;1.10;99.90;;;;;;5108825;28;20048;-66
2021/01/24 00:39:05;;;;;;;56.15;27.02;;;1.20;99.90;;;;;;5109316;28;20062;-66
2021/01/24 00:41:31;;;;;;;42.88;22.30;;;1.20;99.90;;;;;;5108867;28;20101;-66
2021/01/24 00:43:57;;;;;;;46.08;22.65;;;1.20;99.90;;;;;;5108962;28;20051;-66
2021/01/24 00:46:23;;;;;;;41.50;23.38;;;1.20;99.90;;;;;;5109061;28;20044;-66
2021/01/24 00:48:48;;;;;;;40.10;22.30;;;1.20;99.90;;;;;;5108534;28;20069;-66
2021/01/24 00:51:14;;;;;;;41.15;22.00;;;1.20;99.90;;;;;;5108317;28;20052;-66
2021/01/24 00:53:40;;;;;;;44.50;23.55;;;1.10;99.90;;;;;;5108746;28;20040;-66
2021/01/24 00:56:06;;;;;;;45.70;25.02;;;1.10;99.90;;;;;;5108489;28;20048;-66
2021/01/24 00:58:31;;;;;;;39.10;22.67;;;1.10;99.90;;;;;;5108273;28;20048;-66
2021/01/24 01:00:57;;;;;;;48.20;24.10;;;1.10;99.90;;;;;;5107267;28;20104;-67
2021/01/24 01:03:23;;;;;;;43.63;23.30;;;1.00;99.90;;;;;;5108399;28;20416;-66
2021/01/24 01:05:49;;;;;;;45.83;23.52;;;1.00;99.90;;;;;;5108463;28;20036;-66
2021/01/24 01:08:15;;;;;;;42.17;22.52;;;1.00;99.90;;;;;;5108858;28;20067;-66
2021/01/24 01:10:41;;;;;;;42.15;23.33;;;1.00;99.90;;;;;;5108285;28;20182;-66
2021/01/24 01:13:07;;;;;;;38.25;22.27;;;1.00;99.90;;;;;;5108322;28;20036;-66
2021/01/24 01:15:34;;;;;;;36.65;20.75;;;1.00;99.90;;;;;;5108138;28;20040;-66
2021/01/24 01:18:00;;;;;;;42.80;21.25;;;1.10;99.90;;;;;;5108296;28;20448;-66
2021/01/24 01:20:26;;;;;;;40.50;22.35;;;1.10;99.90;;;;;;5108586;28;20056;-66
2021/01/24 01:22:52;;;;;;;45.78;23.30;;;1.10;99.90;;;;;;5107959;28;20040;-66
2021/01/24 01:25:18;;;;;;;45.45;22.73;;;1.10;99.90;;;;;;5108209;28;20127;-66
2021/01/24 01:27:44;;;;;;;37.25;21.70;;;1.10;99.90;;;;;;5107874;28;20051;-65
2021/01/24 01:30:10;;;;;;;41.88;22.25;;;1.00;99.90;;;;;;5107929;28;20101;-66
2021/01/24 01:32:36;;;;;;;46.03;21.83;;;1.00;99.90;;;;;;5107997;28;20070;-66
2021/01/24 01:35:04;;;;;;;44.03;23.38;;;1.00;99.90;;;;;;5107963;28;20056;-66
2021/01/24 01:37:33;;;;;;;38.80;22.48;;;0.90;99.90;;;;;;5107887;28;20054;-66
2021/01/24 01:39:59;;;;;;;41.22;21.77;;;0.90;99.90;;;;;;5107811;28;20071;-66
2021/01/24 01:42:25;;;;;;;39.53;22.55;;;0.80;99.90;;;;;;5107545;28;20044;-66
2021/01/24 01:44:51;;;;;;;43.90;22.52;;;0.80;99.90;;;;;;5107731;28;20044;-66
2021/01/24 01:47:24;;;;;;;38.42;22.30;;;0.80;99.90;;;;;;5107669;28;20040;-66
2021/01/24 01:49:53;;;;;;;50.33;24.40;;;0.80;99.90;;;;;;5107468;28;20055;-66
2021/01/24 01:52:18;;;;;;;49.15;25.05;;;0.80;99.90;;;;;;5107565;28;20066;-66
2021/01/24 01:54:47;;;;;;;42.67;23.52;;;0.80;99.90;;;;;;5107484;28;20099;-66
2021/01/24 01:57:13;;;;;;;44.58;23.85;;;0.80;99.90;;;;;;5107514;28;20048;-66
2021/01/24 01:59:39;;;;;;;49.92;24.55;;;0.90;99.90;;;;;;5107398;28;20047;-66
2021/01/24 02:02:27;;;;;;;50.00;25.02;;;0.90;99.90;;;;;;5107185;28;20040;-66
2021/01/24 02:05:02;;;;;;;49.08;25.98;;;0.90;99.90;;;;;;5107452;28;20040;-66
2021/01/24 02:07:46;;;;;;;51.95;25.92;;;0.90;99.90;;;;;;5107525;28;20050;-66
2021/01/24 02:10:21;;;;;;;47.60;24.73;;;0.80;99.90;;;;;;5106482;28;20059;-66
2021/01/24 02:13:00;;;;;;;48.35;24.88;;;0.80;99.90;;;;;;5107089;28;20059;-66
2021/01/24 02:15:27;;;;;;;46.65;23.65;;;0.80;99.90;;;;;;5106969;28;20059;-66
2021/01/24 02:18:07;;;;;;;47.28;23.25;;;0.80;99.90;;;;;;5107060;28;20048;-66
2021/01/24 02:20:45;;;;;;;43.17;24.13;;;0.80;99.90;;;;;;5106962;28;20071;-66
2021/01/24 02:23:20;;;;;;;46.47;22.65;;;0.80;99.90;;;;;;5106907;28;20055;-66
2021/01/24 02:26:04;;;;;;;45.20;23.02;;;0.80;99.90;;;;;;5107119;28;20058;-66
2021/01/24 02:28:46;;;;;;;41.38;21.92;;;0.80;99.90;;;;;;5107105;28;20047;-66
2021/01/24 02:31:15;;;;;;;51.10;23.50;;;0.80;99.90;;;;;;5106901;28;20039;-66
2021/01/24 02:33:42;;;;;;;36.88;20.73;;;0.80;99.90;;;;;;5106724;28;20044;-66
2021/01/24 02:36:11;;;;;;;36.85;20.92;;;0.90;99.90;;;;;;5106787;28;20051;-66
2021/01/24 02:38:38;;;;;;;41.70;21.10;;;0.90;99.90;;;;;;5106607;28;20048;-66
2021/01/24 02:41:08;;;;;;;39.75;20.80;;;0.90;99.90;;;;;;5106573;28;20048;-66
2021/01/24 02:43:34;;;;;;;35.58;21.58;;;0.90;99.90;;;;;;5106623;28;20076;-66
2021/01/24 02:46:01;;;;;;;43.70;21.73;;;1.00;99.90;;;;;;5106552;28;20101;-66
2021/01/24 02:48:27;;;;;;;39.85;19.95;;;1.10;99.90;;;;;;5106531;28;20415;-66
2021/01/24 02:50:53;;;;;;;39.40;21.65;;;1.00;99.90;;;;;;5104626;28;20060;-66
2021/01/24 02:53:20;;;;;;;44.03;22.85;;;1.00;99.90;;;;;;5105651;28;20069;-66
2021/01/24 02:55:46;;;;;;;36.83;20.20;;;1.00;99.90;;;;;;5105596;28;20052;-66
2021/01/24 02:58:14;;;;;;;39.58;22.23;;;0.90;99.90;;;;;;5105615;28;20055;-66
2021/01/24 03:00:39;;;;;;;40.95;21.60;;;0.90;99.90;;;;;;5105854;28;20077;-65
2021/01/24 03:03:05;;;;;;;44.38;23.65;;;1.00;99.90;;;;;;5105389;28;20048;-66
2021/01/24 03:05:31;;;;;;;41.75;22.02;;;1.10;99.90;;;;;;5105618;28;20510;-66
2021/01/24 03:07:57;;;;;;;37.42;22.67;;;1.00;99.90;;;;;;5105415;28;20131;-66
2021/01/24 03:10:23;;;;;;;39.78;22.88;;;1.10;99.90;;;;;;5105584;28;20051;-66
2021/01/24 03:12:49;;;;;;;39.50;22.52;;;1.10;99.90;;;;;;5105286;28;20044;-66
2021/01/24 03:15:17;;;;;;;38.78;21.88;;;1.10;99.90;;;;;;5105339;28;20082;-66
2021/01/24 03:17:46;;;;;;;43.03;22.65;;;1.10;99.90;;;;;;5120998;28;20127;-66
2021/01/24 03:20:15;;;;;;;44.72;23.00;;;1.10;99.90;;;;;;5105321;28;20048;-66
2021/01/24 03:22:44;;;;;;;40.75;22.25;;;1.10;99.90;;;;;;5103971;28;20143;-66
2021/01/24 03:25:10;;;;;;;38.45;22.88;;;1.00;99.90;;;;;;5105199;28;20036;-66
2021/01/24 03:27:37;;;;;;;45.28;23.52;;;0.90;99.90;;;;;;5105131;28;20514;-66
2021/01/24 03:30:04;;;;;;;45.20;22.35;;;0.80;99.90;;;;;;5105313;28;20044;-66
2021/01/24 03:32:30;;;;;;;47.92;25.05;;;0.80;99.90;;;;;;5105131;28;20044;-66
2021/01/24 03:34:56;;;;;;;44.10;24.75;;;0.80;99.90;;;;;;5105040;28;20058;-66
2021/01/24 03:37:21;;;;;;;51.80;25.55;;;0.90;99.90;;;;;;5104950;28;20055;-66
2021/01/24 03:39:47;;;;;;;47.60;24.25;;;1.00;99.90;;;;;;5105279;28;20048;-66
2021/01/24 03:42:13;;;;;;;48.00;25.02;;;1.00;99.90;;;;;;5104867;28;20047;-65
2021/01/24 03:44:39;;;;;;;44.75;23.58;;;1.00;99.90;;;;;;5105028;28;20052;-66
2021/01/24 03:47:04;;;;;;;40.47;22.33;;;1.10;99.90;;;;;;5105031;28;20055;-66
2021/01/24 03:49:30;;;;;;;46.15;23.33;;;1.10;99.90;;;;;;5104688;28;20044;-66
2021/01/24 03:51:56;;;;;;;38.65;21.10;;;1.10;99.90;;;;;;5085085;28;580280;-66
2021/01/24 03:54:22;;;;;;;42.90;20.85;;;1.20;99.90;;;;;;5105725;28;20065;-66
2021/01/24 03:56:47;;;;;;;41.63;20.55;;;1.10;99.90;;;;;;5105909;28;20068;-66
2021/01/24 03:59:13;;;;;;;42.00;21.58;;;1.10;99.90;;;;;;5105698;28;20040;-66
2021/01/24 04:01:39;;;;;;;37.63;21.02;;;1.20;99.90;;;;;;5105588;28;20040;-66
2021/01/24 04:04:05;;;;;;;35.65;20.45;;;1.10;99.90;;;;;;5105639;28;20043;-67
2021/01/24 04:06:30;;;;;;;35.38;19.13;;;1.10;99.90;;;;;;5105653;28;20047;-66
2021/01/24 04:08:56;;;;;;;35.25;20.52;;;1.20;99.90;;;;;;5105730;28;20039;-66
2021/01/24 04:11:22;;;;;;;35.00;21.05;;;1.20;99.90;;;;;;5105764;28;20050;-66
2021/01/24 04:13:48;;;;;;;32.90;18.58;;;1.10;99.90;;;;;;5105634;28;20048;-66
2021/01/24 04:16:14;;;;;;;36.55;20.05;;;1.20;99.90;;;;;;5105482;28;20055;-66
2021/01/24 04:18:39;;;;;;;39.42;19.20;;;1.10;99.90;;;;;;5105521;28;20048;-65
2021/01/24 04:21:06;;;;;;;40.42;20.58;;;1.10;99.90;;;;;;5105416;28;20050;-66
2021/01/24 04:23:32;;;;;;;29.77;18.73;;;1.10;99.90;;;;;;5105383;28;20064;-66
2021/01/24 04:25:58;;;;;;;38.28;19.58;;;1.00;99.90;;;;;;5105621;28;20138;-66
2021/01/24 04:28:24;;;;;;;35.00;18.90;;;1.00;99.90;;;;;;5105329;28;20055;-66
2021/01/24 04:30:50;;;;;;;34.33;18.35;;;1.00;99.90;;;;;;5105567;28;20064;-66
2021/01/24 04:33:16;;;;;;;37.47;18.70;;;1.00;99.90;;;;;;5105561;28;20044;-66
2021/01/24 04:35:41;;;;;;;38.42;17.67;;;1.10;99.90;;;;;;5109039;28;20433;-66
2021/01/24 04:38:07;;;;;;;29.55;17.73;;;1.10;99.90;;;;;;5109379;28;20108;-66
2021/01/24 04:40:33;;;;;;;35.75;19.33;;;1.10;99.90;;;;;;5109077;28;20059;-66
2021/01/24 04:42:59;;;;;;;35.22;18.20;;;1.00;99.90;;;;;;5108684;28;20035;-66
2021/01/24 04:45:25;;;;;;;35.88;18.30;;;1.10;99.90;;;;;;5109014;28;20052;-66
2021/01/24 04:47:52;;;;;;;35.95;20.02;;;1.10;99.90;;;;;;5108935;28;20069;-66
2021/01/24 04:50:18;;;;;;;34.75;18.27;;;1.10;99.90;;;;;;5108474;28;20104;-66
2021/01/24 04:52:45;;;;;;;40.58;19.83;;;1.00;99.90;;;;;;5108886;28;20099;-66
2021/01/24 04:55:13;;;;;;;40.15;19.63;;;1.00;99.90;;;;;;5108557;28;20074;-66
2021/01/24 04:57:39;;;;;;;43.20;19.30;;;1.00;99.90;;;;;;5108553;28;20040;-66
2021/01/24 05:00:06;;;;;;;40.90;19.38;;;1.00;99.90;;;;;;5108526;28;20048;-66
2021/01/24 05:02:32;;;;;;;32.13;18.02;;;1.00;99.90;;;;;;5108516;28;20048;-66
2021/01/24 05:04:58;;;;;;;35.30;18.15;;;0.90;99.90;;;;;;5108558;28;20048;-65
2021/01/24 05:07:25;;;;;;;44.78;18.83;;;0.90;99.90;;;;;;5108735;28;20067;-66
2021/01/24 05:09:50;;;;;;;34.28;17.33;;;0.90;99.90;;;;;;5108431;28;20048;-66
2021/01/24 05:12:19;;;;;;;36.70;16.67;;;0.90;99.90;;;;;;5108276;28;20050;-66
2021/01/24 05:14:50;;;;;;;31.15;17.92;;;0.90;99.90;;;;;;5108163;28;20066;-65
2021/01/24 05:17:17;;;;;;;37.40;19.98;;;0.90;99.90;;;;;;5108261;28;20044;-66
2021/01/24 05:19:44;;;;;;;32.63;19.55;;;0.90;99.90;;;;;;5108135;28;20092;-65
2021/01/24 05:22:11;;;;;;;36.08;19.77;;;0.90;99.90;;;;;;5108186;28;20489;-66
2021/01/24 05:24:37;;;;;;;37.45;19.45;;;0.90;99.90;;;;;;5108198;28;20103;-66
2021/01/24 05:27:10;;;;;;;36.20;18.08;;;0.90;99.90;;;;;;5107925;28;20503;-66
2021/01/24 05:29:41;;;;;;;32.03;18.85;;;0.80;99.90;;;;;;5108006;28;20189;-65
2021/01/24 05:32:07;;;;;;;33.30;19.17;;;0.80;99.90;;;;;;5107851;28;20431;-66
2021/01/24 05:34:33;;;;;;;38.35;18.85;;;0.80;99.90;;;;;;5107793;28;20118;-65
2021/01/24 05:37:00;;;;;;;33.65;18.38;;;0.80;99.90;;;;;;5108002;28;20044;-65
2021/01/24 05:39:31;;;;;;;35.92;20.00;;;0.70;99.90;;;;;;5107697;28;20043;-66
2021/01/24 05:41:59;;;;;;;38.95;19.20;;;0.70;99.90;;;;;;5107698;28;20050;-65
2021/01/24 05:44:26;;;;;;;37.03;20.23;;;0.70;99.90;;;;;;5107636;28;20129;-66
2021/01/24 05:47:02;;;;;;;33.50;17.97;;;0.70;99.90;;;;;;5106840;28;20496;-65
2021/01/24 05:49:29;;;;;;;39.33;19.45;;;0.70;99.90;;;;;;5107533;28;20059;-65
2021/01/24 05:52:05;;;;;;;35.70;19.25;;;0.70;99.90;;;;;;5107570;28;20059;-66
2021/01/24 05:54:42;;;;;;;34.03;19.08;;;0.70;99.90;;;;;;5107648;28;20070;-66
2021/01/24 05:57:09;;;;;;;39.97;19.23;;;0.60;99.90;;;;;;5107393;28;20388;-65
2021/01/24 05:59:54;;;;;;;36.05;18.73;;;0.60;99.90;;;;;;5107403;28;20044;-66
2021/01/24 06:02:21;;;;;;;38.55;18.83;;;0.50;99.90;;;;;;5107259;28;20065;-65
2021/01/24 06:04:50;;;;;;;35.03;19.50;;;0.50;99.90;;;;;;5107357;28;20051;-66
2021/01/24 06:07:17;;;;;;;35.45;18.08;;;0.50;99.90;;;;;;5107184;28;20070;-66
2021/01/24 06:09:44;;;;;;;32.03;17.87;;;0.50;99.90;;;;;;5107323;28;20066;-66
2021/01/24 06:12:10;;;;;;;35.53;17.15;;;0.50;99.90;;;;;;5107401;28;20047;-66
2021/01/24 06:14:41;;;;;;;34.25;17.63;;;0.50;99.90;;;;;;5106988;28;20069;-66
2021/01/24 06:17:24;;;;;;;36.83;17.13;;;0.50;99.90;;;;;;5107028;28;20051;-65
2021/01/24 06:19:56;;;;;;;31.92;14.40;;;0.50;99.90;;;;;;5107047;28;20064;-66
2021/01/24 06:22:27;;;;;;;32.65;16.33;;;0.50;99.90;;;;;;5107074;28;20044;-66
2021/01/24 06:24:56;;;;;;;34.13;14.38;;;0.50;99.90;;;;;;5106605;28;20046;-66
2021/01/24 06:27:26;;;;;;;27.88;15.13;;;0.40;99.90;;;;;;5107122;28;20044;-66
2021/01/24 06:29:54;;;;;;;29.83;14.77;;;0.40;99.90;;;;;;5106974;28;20071;-66
2021/01/24 06:32:25;;;;;;;32.97;14.65;;;0.40;99.90;;;;;;5106798;28;20111;-66
2021/01/24 06:34:52;;;;;;;27.60;13.93;;;0.30;99.90;;;;;;5106674;28;20055;-66
2021/01/24 06:37:20;;;;;;;32.17;14.57;;;0.30;99.90;;;;;;5106828;28;20093;-66
2021/01/24 06:39:51;;;;;;;29.08;13.18;;;0.30;99.90;;;;;;5106779;28;20043;-66
2021/01/24 06:42:37;;;;;;;28.20;13.25;;;0.30;99.90;;;;;;5106449;28;20055;-66
2021/01/24 06:45:24;;;;;;;26.42;13.57;;;0.30;99.90;;;;;;5106846;28;20043;-66
2021/01/24 06:47:49;;;;;;;24.65;10.35;;;0.40;99.90;;;;;;5106522;28;20044;-66
2021/01/24 06:50:38;;;;;;;27.98;9.68;;;0.60;99.90;;;;;;5106375;28;20420;-65
2021/01/24 06:53:06;;;;;;;22.52;9.15;;;0.80;99.90;;;;;;5106480;28;20048;-66
2021/01/24 06:55:32;;;;;;;17.38;9.88;;;0.90;99.90;;;;;;5106342;28;20062;-66
2021/01/24 06:58:41;;;;;;;13.25;7.70;;;0.90;99.90;;;;;;5106175;28;20040;-65
2021/01/24 07:01:29;;;;;;;20.45;8.00;;;1.00;99.90;;;;;;5106001;28;20044;-66
2021/01/24 07:04:20;;;;;;;19.55;9.70;;;0.90;99.90;;;;;;5106406;28;20043;-66
2021/01/24 07:06:56;;;;;;;17.67;8.48;;;0.90;99.90;;;;;;5106268;28;20048;-65
2021/01/24 07:09:25;;;;;;;19.25;6.78;;;0.90;99.90;;;;;;5106216;28;20044;-66
2021/01/24 07:12:02;;;;;;;17.15;4.95;;;0.90;99.90;;;;;;5106070;28;20044;-66
2021/01/24 07:14:39;;;;;;;16.08;5.97;;;1.10;99.90;;;;;;5106246;28;20097;-65
2021/01/24 07:17:09;;;;;;;17.98;6.82;;;1.00;99.90;;;;;;5106292;28;20071;-66
2021/01/24 07:19:48;;;;;;;17.58;6.28;;;1.00;99.90;;;;;;5106154;28;20044;-66
2021/01/24 07:22:16;;;;;;;13.13;5.10;;;1.00;99.90;;;;;;5106024;28;20059;-66
2021/01/24 07:24:44;;;;;;;13.00;4.85;;;1.00;99.90;;;;;;5106074;28;20135;-66
2021/01/24 07:27:12;;;;;;;14.77;5.68;;;1.00;99.90;;;;;;5106100;28;20040;-66
2021/01/24 07:29:38;;;;;;;12.43;5.35;;;1.00;99.90;;;;;;5106141;28;20069;-66
2021/01/24 07:32:22;;;;;;;10.20;5.22;;;1.00;99.90;;;;;;5106171;28;20068;-66
2021/01/24 07:34:50;;;;;;;10.43;3.78;;;1.10;99.90;;;;;;5106094;28;20052;-66
2021/01/24 07:37:16;;;;;;;8.27;4.35;;;1.10;99.90;;;;;;5105979;28;20072;-66
2021/01/24 07:39:46;;;;;;;10.98;4.10;;;1.10;99.90;;;;;;5105951;28;20089;-66
2021/01/24 07:42:12;;;;;;;8.98;3.38;;;1.10;99.90;;;;;;5105941;28;20067;-66
2021/01/24 07:44:40;;;;;;;6.55;3.67;;;1.10;99.90;;;;;;5105910;28;20036;-66
2021/01/24 07:47:07;;;;;;;9.57;3.33;;;1.20;99.90;;;;;;5121388;28;20048;-66
2021/01/24 07:49:33;;;;;;;12.52;3.30;;;1.20;99.90;;;;;;5105920;28;20104;-66
2021/01/24 07:52:00;;;;;;;3.45;2.53;;;1.20;99.90;;;;;;5105802;28;20098;-66
2021/01/24 07:54:26;;;;;;;6.03;2.53;;;1.20;99.90;;;;;;5105965;28;20107;-66
2021/01/24 07:56:52;;;;;;;4.43;2.25;;;1.20;99.90;;;;;;5105797;28;20504;-66
2021/01/24 07:59:18;;;;;;;4.63;2.08;;;1.30;99.90;;;;;;5105656;28;20051;-66
2021/01/24 08:01:44;;;;;;;7.88;2.00;;;1.30;99.90;;;;;;5105716;28;20099;-66
2021/01/24 08:04:11;;;;;;;4.88;2.08;;;1.30;99.90;;;;;;5105492;28;20044;-67
2021/01/24 08:06:37;;;;;;;4.68;1.33;;;1.30;99.90;;;;;;5105743;28;20044;-66
2021/01/24 08:09:05;;;;;;;6.75;1.25;;;1.30;99.90;;;;;;5107225;28;20044;-66
2021/01/24 08:11:31;;;;;;;5.13;0.98;;;1.30;99.90;;;;;;5109476;28;20120;-66
2021/01/24 08:13:57;;;;;;;4.60;1.35;;;1.30;99.90;;;;;;5109542;28;20419;-66
2021/01/24 08:16:52;;;;;;;2.05;1.10;;;1.30;99.90;;;;;;5109119;28;20047;-66
2021/01/24 08:19:22;;;;;;;5.10;1.40;;;1.30;99.90;;;;;;5108109;28;20052;-66
2021/01/24 08:21:50;;;;;;;2.35;0.88;;;1.20;99.90;;;;;;5109186;28;20055;-66
2021/01/24 08:24:17;;;;;;;2.10;0.80;;;1.20;99.90;;;;;;5109379;28;20048;-66
2021/01/24 08:26:43;;;;;;;2.13;1.20;;;1.10;99.90;;;;;;5109189;28;20048;-66
2021/01/24 08:29:09;;;;;;;3.97;1.30;;;1.10;99.90;;;;;;5109220;28;20107;-66
2021/01/24 08:31:35;;;;;;;4.00;1.35;;;1.10;99.90;;;;;;5109182;28;20047;-66
2021/01/24 08:34:02;;;;;;;4.40;1.20;;;1.10;99.90;;;;;;5109094;28;20044;-66
2021/01/24 08:36:29;;;;;;;4.70;1.20;;;1.00;99.90;;;;;;5108954;28;20112;-67
2021/01/24 08:38:56;;;;;;;1.95;1.00;;;0.90;99.90;;;;;;5109162;28;20113;-66
2021/01/24 08:41:39;;;;;;;2.47;0.90;;;1.00;99.90;;;;;;5108730;28;20050;-66
2021/01/24 08:44:16;;;;;;;3.35;1.20;;;1.00;99.90;;;;;;5108928;28;20048;-66
2021/01/24 08:46:43;;;;;;;5.43;1.65;;;1.00;99.90;;;;;;5108937;28;20077;-68
2021/01/24 08:49:11;;;;;;;7.30;2.10;;;1.00;99.90;;;;;;5108788;28;20047;-67
2021/01/24 08:51:49;;;;;;;3.90;1.15;;;1.00;99.90;;;;;;5108687;28;20056;-67
2021/01/24 08:54:24;;;;;;;4.53;1.02;;;1.00;99.90;;;;;;5108890;28;20047;-67
2021/01/24 08:56:52;;;;;;;3.00;0.70;;;1.10;99.90;;;;;;5108626;28;20062;-67
2021/01/24 08:59:23;;;;;;;3.78;1.10;;;1.10;99.90;;;;;;5108558;28;20063;-67
2021/01/24 09:01:55;;;;;;;7.25;1.00;;;1.00;99.90;;;;;;5108352;28;20044;-68
2021/01/24 09:04:46;;;;;;;3.75;1.00;;;1.00;99.90;;;;;;5108432;28;20044;-66
2021/01/24 09:07:14;;;;;;;4.78;1.20;;;1.00;99.90;;;;;;5108574;28;20078;-66
2021/01/24 09:09:45;;;;;;;3.63;0.90;;;1.10;99.90;;;;;;5108376;28;20119;-66
2021/01/24 09:12:13;;;;;;;3.88;1.20;;;1.10;99.90;;;;;;5108503;28;20062;-66
2021/01/24 09:14:39;;;;;;;3.22;0.80;;;1.10;99.90;;;;;;5108330;28;20070;-66
2021/01/24 09:17:11;;;;;;;2.58;0.95;;;1.10;99.90;;;;;;5108151;28;20048;-66
2021/01/24 09:19:44;;;;;;;2.25;1.00;;;1.10;99.90;;;;;;5107967;28;20047;-67
2021/01/24 09:22:12;;;;;;;1.33;0.98;;;1.10;99.90;;;;;;5107987;28;20040;-67
2021/01/24 09:24:39;;;;;;;6.97;1.40;;;1.20;99.90;;;;;;5108240;28;20496;-67
2021/01/24 09:27:07;;;;;;;7.82;1.23;;;1.30;99.90;;;;;;5108467;28;20070;-67
2021/01/24 09:29:37;;;;;;;;;;;1.30;99.90;;;;;;5108544;28;20044;-66
2021/01/24 09:32:03;;;;;;;6.05;1.67;;;1.40;99.90;;;;;;5107980;28;19927;-66
2021/01/24 09:34:29;;;;;;;6.43;1.80;;;1.40;99.90;;;;;;5107789;28;20040;-66
2021/01/24 09:36:55;;;;;;;5.28;1.77;;;1.50;99.90;;;;;;5107847;28;20473;-66
2021/01/24 09:39:21;;;;;;;2.78;1.70;;;1.50;99.90;;;;;;5107912;28;20048;-66
2021/01/24 09:41:47;;;;;;;5.60;1.58;;;1.60;99.90;;;;;;5107852;28;20050;-66
2021/01/24 09:44:13;;;;;;;3.92;1.60;;;1.70;99.90;;;;;;5107753;28;20040;-66
2021/01/24 09:46:39;;;;;;;2.78;1.25;;;1.90;99.90;;;;;;5107726;28;20050;-66
2021/01/24 09:49:05;;;;;;;4.05;1.55;;;2.00;99.90;;;;;;5107691;28;20467;-66
2021/01/24 09:51:31;;;;;;;4.60;1.20;;;2.10;99.90;;;;;;5107356;28;20059;-65
2021/01/24 09:53:57;;;;;;;4.82;1.77;;;2.10;99.90;;;;;;5107668;28;20048;-66
2021/01/24 09:56:25;;;;;;;2.83;1.10;;;2.10;99.90;;;;;;5107527;28;20051;-66
2021/01/24 09:58:52;;;;;;;4.07;1.23;;;2.20;99.90;;;;;;5107519;28;20411;-66
2021/01/24 10:01:18;;;;;;;3.40;1.10;;;2.30;99.90;;;;;;5107414;28;20091;-66
2021/01/24 10:03:46;;;;;;;5.97;1.55;;;2.40;99.90;;;;;;5107516;28;20047;-66
2021/01/24 10:06:11;;;;;;;5.38;1.85;;;2.50;99.90;;;;;;5107422;28;20106;-66
2021/01/24 10:08:37;;;;;;;6.15;1.30;;;2.70;99.90;;;;;;5107343;28;20103;-66
2021/01/24 10:11:03;;;;;;;4.13;1.52;;;2.80;99.90;;;;;;5107480;28;20044;-67
2021/01/24 10:13:29;;;;;;;4.97;1.80;;;3.00;99.90;;;;;;5107130;28;20070;-68
2021/01/24 10:15:55;;;;;;;3.70;1.42;;;3.10;99.90;;;;;;5107091;28;20040;-67
2021/01/24 10:18:22;;;;;;;7.85;1.70;;;3.20;99.90;;;;;;5107104;28;20052;-67
2021/01/24 10:20:48;;;;;;;4.15;1.50;;;3.20;99.90;;;;;;5107100;28;20044;-67
2021/01/24 10:23:15;;;;;;;4.20;1.10;;;3.10;99.90;;;;;;5107177;28;20059;-66
2021/01/24 10:25:41;;;;;;;4.32;1.33;;;3.10;99.90;;;;;;5107130;28;20039;-66
2021/01/24 10:28:07;;;;;;;1.25;1.02;;;3.40;99.90;;;;;;5106826;28;20044;-66
2021/01/24 10:30:33;;;;;;;1.63;0.75;;;3.10;99.90;;;;;;5106823;28;20103;-66
2021/01/24 10:32:58;;;;;;;3.63;0.82;;;3.10;99.90;;;;;;5106323;28;20044;-65
2021/01/24 10:35:24;;;;;;;1.27;0.50;;;3.00;99.90;;;;;;5106679;28;20044;-65
2021/01/24 10:37:50;;;;;;;3.15;0.60;;;3.00;99.90;;;;;;5107152;28;20040;-65
2021/01/24 10:40:16;;;;;;;4.22;0.77;;;2.80;99.90;;;;;;5106723;28;20063;-65
2021/01/24 10:42:42;;;;;;;0.70;0.50;;;2.70;99.90;;;;;;5106392;28;20040;-64
2021/01/24 10:45:09;;;;;;;1.38;0.70;;;2.60;99.90;;;;;;5106540;28;20044;-64
2021/01/24 10:47:35;;;;;;;1.75;0.70;;;2.50;99.90;;;;;;5106686;28;20064;-66
2021/01/24 10:50:02;;;;;;;2.10;0.65;;;2.50;99.90;;;;;;5106571;28;20071;-65
2021/01/24 10:52:28;;;;;;;1.05;0.70;;;2.50;99.90;;;;;;5106726;28;20078;-65
2021/01/24 10:54:54;;;;;;;3.17;0.75;;;2.50;99.90;;;;;;5106325;28;20430;-65
2021/01/24 10:57:20;;;;;;;2.92;0.60;;;2.60;99.90;;;;;;5106315;28;20040;-66
2021/01/24 10:59:45;;;;;;;4.13;0.80;;;2.70;99.90;;;;;;5106510;28;20491;-65
2021/01/24 11:02:11;;;;;;;0.82;0.63;;;2.90;99.90;;;;;;5106417;28;20043;-65
2021/01/24 11:04:37;;;;;;;2.95;0.68;;;3.00;99.90;;;;;;5105255;28;20043;-66
2021/01/24 11:07:04;;;;;;;4.43;0.70;;;3.60;99.90;;;;;;5106589;28;20048;-66
2021/01/24 11:09:30;;;;;;;1.25;0.52;;;3.60;99.90;;;;;;5106356;28;20051;-66
2021/01/24 11:11:56;;;;;;;1.00;0.50;;;3.80;99.90;;;;;;5106146;28;20043;-66
2021/01/24 11:14:22;;;;;;;1.00;0.47;;;3.90;99.90;;;;;;5106132;28;20071;-66
2021/01/24 11:16:47;;;;;;;1.75;0.55;;;4.10;99.90;;;;;;5106129;28;20499;-66
2021/01/24 11:19:13;;;;;;;0.93;0.60;;;4.20;99.90;;;;;;5106114;28;20040;-67
2021/01/24 11:21:39;;;;;;;0.57;0.50;;;4.10;99.90;;;;;;5105964;28;20120;-66
2021/01/24 11:24:05;;;;;;;4.53;0.70;;;4.20;99.90;;;;;;5105825;28;20044;-68
2021/01/24 11:26:31;;;;;;;1.42;0.55;;;4.20;99.90;;;;;;5088173;28;20048;-66
2021/01/24 11:28:57;;;;;;;2.10;0.60;;;4.20;99.90;;;;;;5099854;28;20046;-66
2021/01/24 11:31:23;;;;;;;4.95;1.10;;;4.50;99.90;;;;;;5104943;28;20119;-66
2021/01/24 11:33:49;;;;;;;3.03;0.88;;;4.50;99.90;;;;;;5104734;28;20064;-64
2021/01/24 11:36:16;;;;;;;1.98;0.90;;;4.70;99.90;;;;;;5103078;28;20036;-66
2021/01/24 11:38:42;;;;;;;5.07;1.17;;;4.60;99.90;;;;;;5095895;28;20044;-66
2021/01/24 11:41:08;;;;;;;2.53;0.82;;;4.50;99.90;;;;;;5093890;28;20052;-65
2021/01/24 11:43:34;;;;;;;3.78;1.45;;;4.40;99.90;;;;;;5104969;28;20120;-66
2021/01/24 11:46:00;;;;;;;3.42;1.98;;;4.30;99.90;;;;;;5093656;28;20036;-67
2021/01/24 11:48:26;;;;;;;3.67;1.25;;;4.30;99.90;;;;;;5101068;28;20069;-67
2021/01/24 11:50:53;;;;;;;3.90;1.27;;;4.30;99.90;;;;;;5093088;28;20079;-73
2021/01/24 11:53:22;;;;;;;3.80;1.50;;;4.30;99.90;;;;;;5105193;28;20499;-71
2021/01/24 11:55:52;;;;;;;7.00;1.30;;;4.30;99.90;;;;;;5104023;28;20061;-72
2021/01/24 11:58:18;;;;;;;11.82;2.13;;;4.80;99.90;;;;;;5101753;28;20040;-72
2021/01/24 12:00:44;;;;;;;4.75;1.17;;;4.40;99.90;;;;;;5104158;28;20039;-71
2021/01/24 12:03:10;;;;;;;1.17;0.85;;;4.40;99.90;;;;;;5109195;28;20506;-69
2021/01/24 12:05:35;;;;;;;4.00;0.90;;;4.20;99.90;;;;;;5105898;28;20093;-71
2021/01/24 12:08:01;;;;;;;1.83;0.60;;;4.00;99.90;;;;;;5093955;28;20552;-71
2021/01/24 12:10:27;;;;;;;2.55;0.70;;;4.30;99.90;;;;;;5100410;28;20147;-71
2021/01/24 12:12:53;;;;;;;2.40;0.85;;;5.00;99.90;;;;;;5101009;28;20070;-72
2021/01/24 12:15:19;;;;;;;3.00;0.90;;;4.70;99.90;;;;;;5093208;28;20089;-71
2021/01/24 12:17:44;;;;;;;2.88;1.10;;;4.30;99.90;;;;;;5108061;28;20051;-71
2021/01/24 12:20:11;;;;;;;1.98;0.85;;;3.90;99.90;;;;;;5108321;28;20040;-75
2021/01/24 12:22:37;;;;;;;3.30;0.70;;;3.60;99.90;;;;;;5098802;28;20079;-76
2021/01/24 12:25:03;;;;;;;1.80;0.70;;;3.70;99.90;;;;;;5102180;28;20040;-74
2021/01/24 12:27:29;;;;;;;0.73;0.60;;;3.90;99.90;;;;;;5099644;28;20044;-74
2021/01/24 12:29:55;;;;;;;1.80;0.60;;;4.20;99.90;;;;;;5104803;28;20041;-68
2021/01/24 12:32:21;;;;;;;0.73;0.52;;;4.70;99.90;;;;;;5104766;28;20058;-72
2021/01/24 12:34:46;;;;;;;4.20;1.35;;;4.80;99.90;;;;;;5109100;28;20044;-73
2021/01/24 12:37:12;;;;;;;8.50;2.90;;;5.40;99.90;;;;;;5109043;28;20047;-73
2021/01/24 12:39:38;;;;;;;5.40;1.63;;;5.50;99.90;;;;;;5109075;28;20044;-72
2021/01/24 12:42:04;;;;;;;3.67;2.30;;;5.70;99.90;;;;;;5108950;28;20050;-72
2021/01/24 12:44:30;;;;;;;1.83;0.95;;;;;;;;;;5108974;28;20039;-73
2021/01/24 12:46:56;;;;;;;1.95;0.60;;;6.40;99.90;;;;;;5108887;28;20051;-73
2021/01/24 12:49:21;;;;;;;3.15;0.98;;;6.50;99.90;;;;;;5108883;28;20047;-73